| time (UTC) | temp C | wind direction | speed KPH | gust KPH | rain 1hr cm | rain 24hr cm | rain mn cm | humidity % | barometer mb |
| 20260510005502 | 18 | 168 | 8.0 | 11.3 | 0.00 | 0.00 | 0.00 | 72 | 986.0 |
| 20260510005002 | 18 | 167 | 8.0 | 12.9 | 0.00 | 0.00 | 0.00 | 71 | 986.0 |
| 20260510004502 | 18 | 169 | 8.0 | 12.9 | 0.00 | 0.00 | 0.00 | 70 | 986.0 |
| 20260510004003 | 19 | 165 | 8.0 | 11.3 | 0.00 | 0.00 | 0.00 | 69 | 986.0 |
| 20260510003502 | 20 | 162 | 8.0 | 12.9 | 0.00 | 0.00 | 0.00 | 69 | 986.0 |
| 20260510003003 | 20 | 164 | 8.0 | 11.3 | 0.00 | 0.00 | 0.00 | 67 | 986.0 |
| 20260510002502 | 20 | 162 | 8.0 | 9.7 | 0.00 | 0.00 | 0.00 | 64 | 985.9 |
| 20260510002002 | 21 | 165 | 8.0 | 11.3 | 0.00 | 0.00 | 0.00 | 62 | 985.9 |
| 20260510001502 | 21 | 166 | 8.0 | 11.3 | 0.00 | 0.00 | 0.00 | 60 | 985.9 |
| 20260510001002 | 22 | 166 | 9.7 | 11.3 | 0.00 | 0.00 | 0.00 | 58 | 985.9 |
| 20260510000503 | 22 | 166 | 9.7 | 14.5 | 0.00 | 0.00 | 0.00 | 55 | 986.0 |
| 20260510000002 | 23 | 190 | 9.7 | 12.9 | 0.00 | 0.00 | 0.00 | 54 | 986.0 |
| 20260509235502 | 23 | 151 | 11.3 | 14.5 | 0.00 | 0.00 | 0.00 | 52 | 986.0 |
| 20260509235002 | 25 | 163 | 11.3 | 16.1 | 0.00 | 0.00 | 0.00 | 51 | 986.0 |
| 20260509234503 | 25 | 156 | 12.9 | 16.1 | 0.00 | 0.00 | 0.00 | 47 | 986.1 |
| 20260509234002 | 25 | 157 | 11.3 | 17.7 | 0.00 | 0.00 | 0.00 | 47 | 986.1 |
| 20260509233502 | 26 | 211 | 9.7 | 17.7 | 0.00 | 0.00 | 0.00 | 45 | 986.0 |
| 20260509233002 | 26 | 152 | 14.5 | 19.3 | 0.00 | 0.00 | 0.00 | 45 | 986.0 |
| 20260509232503 | 26 | 149 | 12.9 | 19.3 | 0.00 | 0.00 | 0.00 | 43 | 986.1 |
| 20260509232002 | 26 | 287 | 9.7 | 19.3 | 0.00 | 0.00 | 0.00 | 41 | 986.1 |
| 20260509231502 | 26 | 173 | 14.5 | 19.3 | 0.00 | 0.00 | 0.00 | 43 | 986.1 |
| 20260509231002 | 26 | 180 | 14.5 | 24.1 | 0.00 | 0.00 | 0.00 | 43 | 986.1 |
| 20260509230502 | 26 | 166 | 14.5 | 27.4 | 0.00 | 0.00 | 0.00 | 40 | 986.1 |
| 20260509230002 | 26 | 311 | 11.3 | 24.1 | 0.00 | 0.00 | 0.00 | 40 | 986.1 |
| 20260509225502 | 26 | 169 | 17.7 | 27.4 | 0.00 | 0.00 | 0.00 | 40 | 986.1 |
| 20260509225002 | 26 | 151 | 17.7 | 27.4 | 0.00 | 0.00 | 0.00 | 41 | 986.0 |
| 20260509224503 | 26 | 311 | 8.0 | 17.7 | 0.00 | 0.00 | 0.00 | 39 | 986.0 |
| 20260509224002 | 26 | 247 | 11.3 | 25.7 | 0.00 | 0.00 | 0.00 | 42 | 986.1 |
| 20260509223502 | 26 | 311 | 8.0 | 20.9 | 0.00 | 0.00 | 0.00 | 43 | 986.0 |
| 20260509223002 | 26 | 320 | 6.4 | 20.9 | 0.00 | 0.00 | 0.00 | 42 | 985.9 |
| 20260509222502 | 25 | 263 | 16.1 | 25.7 | 0.00 | 0.00 | 0.00 | 41 | 985.9 |
| 20260509222002 | 26 | 161 | 20.9 | 30.6 | 0.00 | 0.00 | 0.00 | 43 | 986.0 |
| 20260509221503 | 26 | 151 | 22.5 | 32.2 | 0.00 | 0.00 | 0.00 | 45 | 986.0 |
| 20260509221002 | 26 | 160 | 27.4 | 35.4 | 0.00 | 0.00 | 0.00 | 43 | 986.0 |
| 20260509220502 | 26 | 143 | 17.7 | 33.8 | 0.00 | 0.00 | 0.00 | 42 | 986.1 |
| 20260509220002 | 26 | 157 | 17.7 | 43.5 | 0.00 | 0.00 | 0.00 | 41 | 986.0 |
| 20260509215503 | 26 | 147 | 17.7 | 33.8 | 0.00 | 0.00 | 0.00 | 41 | 986.0 |
| 20260509215002 | 27 | 164 | 20.9 | 37.0 | 0.00 | 0.00 | 0.00 | 41 | 986.0 |
| 20260509214502 | 27 | 144 | 14.5 | 30.6 | 0.00 | 0.00 | 0.00 | 43 | 986.0 |
| 20260509214002 | 26 | 324 | 8.0 | 25.7 | 0.00 | 0.00 | 0.00 | 45 | 986.0 |
| 20260509213502 | 26 | 27 | 9.7 | 25.7 | 0.00 | 0.00 | 0.00 | 44 | 986.0 |
| 20260509213002 | 26 | 238 | 9.7 | 38.6 | 0.00 | 0.00 | 0.00 | 42 | 985.9 |
| 20260509212502 | 26 | 315 | 9.7 | 27.4 | 0.00 | 0.00 | 0.00 | 44 | 985.9 |
| 20260509212002 | 26 | 271 | 19.3 | 40.2 | 0.00 | 0.00 | 0.00 | 43 | 985.9 |
| 20260509211502 | 26 | 156 | 20.9 | 35.4 | 0.00 | 0.00 | 0.00 | 43 | 985.8 |
| 20260509211003 | 26 | 314 | 12.9 | 33.8 | 0.00 | 0.00 | 0.00 | 44 | 985.8 |
| 20260509210502 | 26 | 293 | 16.1 | 30.6 | 0.00 | 0.00 | 0.00 | 44 | 985.9 |
| 20260509210002 | 26 | 214 | 12.9 | 29.0 | 0.00 | 0.00 | 0.00 | 45 | 985.8 |
| 20260509205502 | 26 | 317 | 9.7 | 27.4 | 0.00 | 0.00 | 0.00 | 46 | 985.7 |
| 20260509205003 | 25 | 279 | 12.9 | 29.0 | 0.00 | 0.00 | 0.00 | 46 | 985.9 |
| 20260509204502 | 25 | 6 | 11.3 | 32.2 | 0.00 | 0.00 | 0.00 | 45 | 985.9 |
| 20260509204002 | 25 | 344 | 6.4 | 20.9 | 0.00 | 0.00 | 0.00 | 46 | 985.8 |
| 20260509203503 | 25 | 185 | 12.9 | 29.0 | 0.00 | 0.00 | 0.00 | 45 | 985.9 |
| 20260509203002 | 25 | 337 | 6.4 | 20.9 | 0.00 | 0.00 | 0.00 | 45 | 985.9 |
| 20260509202502 | 25 | 164 | 17.7 | 33.8 | 0.00 | 0.00 | 0.00 | 46 | 985.9 |
| 20260509202002 | 25 | 313 | 9.7 | 22.5 | 0.00 | 0.00 | 0.00 | 45 | 986.0 |
| 20260509201502 | 25 | 322 | 8.0 | 24.1 | 0.00 | 0.00 | 0.00 | 46 | 986.0 |
| 20260509201003 | 25 | 274 | 14.5 | 24.1 | 0.00 | 0.00 | 0.00 | 46 | 986.1 |
| 20260509200503 | 25 | 194 | 9.7 | 22.5 | 0.00 | 0.00 | 0.00 | 46 | 986.2 |
| 20260509200002 | 25 | 198 | 16.1 | 25.7 | 0.00 | 0.00 | 0.00 | 48 | 986.3 |
| 20260509195502 | 24 | 309 | 6.4 | 14.5 | 0.00 | 0.00 | 0.00 | 51 | 986.3 |
| 20260509195002 | 24 | 318 | 8.0 | 16.1 | 0.00 | 0.00 | 0.00 | 52 | 986.2 |
| 20260509194503 | 24 | 154 | 9.7 | 20.9 | 0.00 | 0.00 | 0.00 | 50 | 986.3 |
| 20260509194003 | 24 | 144 | 14.5 | 24.1 | 0.00 | 0.00 | 0.00 | 52 | 986.1 |
| 20260509193502 | 24 | 160 | 17.7 | 25.7 | 0.00 | 0.00 | 0.00 | 51 | 986.2 |
| 20260509193002 | 25 | 161 | 17.7 | 37.0 | 0.00 | 0.00 | 0.00 | 50 | 986.3 |
| 20260509192502 | 25 | 165 | 24.1 | 40.2 | 0.00 | 0.00 | 0.00 | 49 | 986.6 |
| 20260509192002 | 25 | 178 | 14.5 | 41.8 | 0.00 | 0.00 | 0.00 | 49 | 986.7 |
| 20260509191502 | 24 | 154 | 14.5 | 32.2 | 0.00 | 0.00 | 0.00 | 49 | 986.7 |
| 20260509191002 | 24 | 278 | 9.7 | 19.3 | 0.00 | 0.00 | 0.00 | 49 | 986.6 |
| 20260509190502 | 23 | 177 | 12.9 | 17.7 | 0.00 | 0.00 | 0.00 | 53 | 986.4 |
| 20260509190002 | 23 | 188 | 8.0 | 20.9 | 0.00 | 0.00 | 0.00 | 54 | 986.4 |
| 20260509185503 | 24 | 145 | 14.5 | 27.4 | 0.00 | 0.00 | 0.00 | 53 | 986.6 |
| 20260509185002 | 24 | 150 | 16.1 | 33.8 | 0.00 | 0.00 | 0.00 | 51 | 986.8 |
| 20260509184502 | 24 | 321 | 11.3 | 30.6 | 0.00 | 0.00 | 0.00 | 51 | 986.8 |
| 20260509184002 | 23 | 151 | 16.1 | 29.0 | 0.00 | 0.00 | 0.00 | 52 | 986.8 |
| 20260509183502 | 23 | 320 | 9.7 | 19.3 | 0.00 | 0.00 | 0.00 | 54 | 986.7 |
| 20260509183002 | 23 | 252 | 12.9 | 24.1 | 0.00 | 0.00 | 0.00 | 55 | 986.4 |
| 20260509182503 | 23 | 316 | 12.9 | 24.1 | 0.00 | 0.00 | 0.00 | 55 | 986.5 |
| 20260509182003 | 24 | 321 | 11.3 | 24.1 | 0.00 | 0.00 | 0.00 | 53 | 986.6 |
| 20260509181502 | 23 | 180 | 12.9 | 24.1 | 0.00 | 0.00 | 0.00 | 55 | 986.7 |
| 20260509181002 | 23 | 142 | 16.1 | 27.4 | 0.00 | 0.00 | 0.00 | 54 | 986.7 |
| 20260509180502 | 23 | 162 | 22.5 | 35.4 | 0.00 | 0.00 | 0.00 | 55 | 986.5 |
| 20260509180002 | 24 | 179 | 16.1 | 33.8 | 0.00 | 0.00 | 0.00 | 54 | 986.6 |
| 20260509175502 | 23 | 273 | 12.9 | 27.4 | 0.00 | 0.00 | 0.00 | 56 | 986.6 |
| 20260509175003 | 23 | 303 | 9.7 | 19.3 | 0.00 | 0.00 | 0.00 | 55 | 986.6 |
| 20260509174502 | 23 | 159 | 12.9 | 22.5 | 0.00 | 0.00 | 0.00 | 56 | 986.3 |
| 20260509174002 | 23 | 352 | 9.7 | 19.3 | 0.00 | 0.00 | 0.00 | 56 | 986.4 |
| 20260509173502 | 22 | 267 | 8.0 | 22.5 | 0.00 | 0.00 | 0.00 | 56 | 986.7 |
| 20260509173003 | 22 | 162 | 12.9 | 22.5 | 0.00 | 0.00 | 0.00 | 59 | 986.5 |
| 20260509172502 | 22 | 167 | 11.3 | 22.5 | 0.00 | 0.00 | 0.00 | 59 | 986.3 |
| 20260509172002 | 22 | 163 | 14.5 | 25.7 | 0.00 | 0.00 | 0.00 | 60 | 986.3 |
| 20260509171502 | 22 | 180 | 11.3 | 20.9 | 0.00 | 0.00 | 0.00 | 58 | 986.6 |
| 20260509171003 | 22 | 150 | 14.5 | 30.6 | 0.00 | 0.00 | 0.00 | 58 | 986.7 |
| 20260509170502 | 22 | 220 | 9.7 | 17.7 | 0.00 | 0.00 | 0.00 | 60 | 986.7 |
| 20260509170002 | 22 | 189 | 9.7 | 19.3 | 0.00 | 0.00 | 0.00 | 60 | 986.5 |
| 20260509165502 | 22 | 152 | 8.0 | 12.9 | 0.00 | 0.00 | 0.00 | 60 | 986.3 |
| 20260509165002 | 22 | 184 | 9.7 | 17.7 | 0.00 | 0.00 | 0.00 | 60 | 986.3 |
| 20260509164503 | 22 | 204 | 11.3 | 19.3 | 0.00 | 0.00 | 0.00 | 59 | 986.7 |
| 20260509164003 | 22 | 233 | 11.3 | 27.4 | 0.00 | 0.00 | 0.00 | 60 | 986.7 |
| 20260509163502 | 22 | 327 | 4.8 | 11.3 | 0.00 | 0.00 | 0.00 | 59 | 986.7 |
| 20260509163002 | 22 | 10 | 6.4 | 19.3 | 0.00 | 0.00 | 0.00 | 60 | 986.7 |
| 20260509162503 | 22 | 140 | 14.5 | 27.4 | 0.00 | 0.00 | 0.00 | 62 | 986.7 |
| 20260509162003 | 22 | 161 | 14.5 | 25.7 | 0.00 | 0.00 | 0.00 | 62 | 986.6 |
| 20260509161502 | 22 | 160 | 11.3 | 29.0 | 0.00 | 0.00 | 0.00 | 62 | 986.6 |
| 20260509161002 | 21 | 195 | 8.0 | 17.7 | 0.00 | 0.00 | 0.00 | 61 | 986.7 |
| 20260509160503 | 21 | 181 | 11.3 | 20.9 | 0.00 | 0.00 | 0.00 | 62 | 986.7 |
| 20260509160002 | 21 | 164 | 14.5 | 24.1 | 0.00 | 0.00 | 0.00 | 63 | 986.7 |
| 20260509155502 | 21 | 180 | 12.9 | 29.0 | 0.00 | 0.00 | 0.00 | 65 | 986.7 |
| 20260509155002 | 21 | 161 | 14.5 | 29.0 | 0.00 | 0.00 | 0.00 | 65 | 986.6 |
| 20260509154502 | 20 | 164 | 14.5 | 35.4 | 0.00 | 0.00 | 0.00 | 66 | 986.6 |
| 20260509154003 | 21 | 172 | 19.3 | 33.8 | 0.00 | 0.00 | 0.00 | 67 | 986.5 |
| 20260509153502 | 21 | 161 | 12.9 | 27.4 | 0.00 | 0.00 | 0.00 | 67 | 986.5 |
| 20260509153002 | 20 | 200 | 9.7 | 19.3 | 0.00 | 0.00 | 0.00 | 67 | 986.5 |
| 20260509152502 | 20 | 166 | 14.5 | 20.9 | 0.00 | 0.00 | 0.00 | 68 | 986.5 |
| 20260509152002 | 20 | 145 | 8.0 | 17.7 | 0.00 | 0.00 | 0.00 | 69 | 986.4 |
| 20260509151503 | 20 | 132 | 9.7 | 24.1 | 0.00 | 0.00 | 0.00 | 70 | 986.4 |
| 20260509151002 | 20 | 175 | 14.5 | 29.0 | 0.00 | 0.00 | 0.00 | 70 | 986.4 |
| 20260509150502 | 20 | 167 | 14.5 | 20.9 | 0.00 | 0.00 | 0.00 | 70 | 986.3 |
| 20260509150002 | 20 | 170 | 11.3 | 20.9 | 0.00 | 0.00 | 0.00 | 70 | 986.3 |
| 20260509145503 | 19 | 224 | 8.0 | 20.9 | 0.00 | 0.00 | 0.00 | 72 | 986.4 |
| 20260509145002 | 19 | 164 | 12.9 | 20.9 | 0.00 | 0.00 | 0.00 | 74 | 986.4 |
| 20260509144502 | 19 | 169 | 14.5 | 30.6 | 0.00 | 0.00 | 0.00 | 73 | 986.4 |
| 20260509144002 | 19 | 183 | 11.3 | 22.5 | 0.00 | 0.00 | 0.00 | 73 | 986.3 |
| 20260509143503 | 19 | 303 | 4.8 | 14.5 | 0.00 | 0.00 | 0.00 | 73 | 986.4 |
| 20260509143003 | 18 | 233 | 6.4 | 11.3 | 0.00 | 0.00 | 0.00 | 74 | 986.4 |
| 20260509142502 | 18 | 149 | 6.4 | 16.1 | 0.00 | 0.00 | 0.00 | 75 | 986.3 |
| 20260509142002 | 18 | 339 | 6.4 | 19.3 | 0.00 | 0.00 | 0.00 | 76 | 986.2 |
| 20260509141503 | 18 | 310 | 6.4 | 14.5 | 0.00 | 0.00 | 0.00 | 76 | 986.1 |
| 20260509141002 | 17 | 274 | 4.8 | 16.1 | 0.00 | 0.00 | 0.00 | 78 | 985.9 |
| 20260509140502 | 17 | 166 | 9.7 | 17.7 | 0.00 | 0.08 | 0.00 | 78 | 985.7 |
| 20260509140002 | 17 | 296 | 9.7 | 22.5 | 0.00 | 0.20 | 0.00 | 78 | 985.6 |
| 20260509135502 | 17 | 184 | 6.4 | 12.9 | 0.00 | 0.20 | 0.00 | 80 | 985.8 |
| 20260509135002 | 17 | 207 | 6.4 | 12.9 | 0.00 | 0.20 | 0.00 | 80 | 985.9 |
| 20260509134503 | 16 | 210 | 6.4 | 12.9 | 0.00 | 0.20 | 0.00 | 81 | 986.1 |
| 20260509134003 | 16 | 258 | 6.4 | 20.9 | 0.00 | 0.20 | 0.00 | 82 | 986.2 |
| 20260509133502 | 16 | 182 | 4.8 | 11.3 | 0.00 | 0.20 | 0.00 | 83 | 986.1 |
| 20260509133003 | 16 | 257 | 6.4 | 16.1 | 0.00 | 0.20 | 0.00 | 83 | 986.1 |
| 20260509132502 | 15 | 284 | 4.8 | 11.3 | 0.00 | 0.20 | 0.00 | 85 | 986.1 |
| 20260509132002 | 15 | 249 | 4.8 | 14.5 | 0.00 | 0.20 | 0.00 | 85 | 986.0 |
| 20260509131502 | 15 | 200 | 6.4 | 19.3 | 0.00 | 0.20 | 0.00 | 86 | 986.0 |
| 20260509131002 | 15 | 174 | 6.4 | 22.5 | 0.00 | 0.20 | 0.00 | 87 | 986.0 |
| 20260509130502 | 14 | 308 | 8.0 | 17.7 | 0.00 | 0.20 | 0.00 | 87 | 985.9 |
| 20260509130003 | 14 | 209 | 8.0 | 22.5 | 0.00 | 0.20 | 0.00 | 88 | 985.9 |
| 20260509125502 | 14 | 174 | 11.3 | 25.7 | 0.00 | 0.20 | 0.00 | 88 | 985.9 |
| 20260509125002 | 13 | 205 | 4.8 | 12.9 | 0.00 | 0.20 | 0.00 | 89 | 985.9 |
| 20260509124502 | 13 | 324 | 8.0 | 19.3 | 0.00 | 0.20 | 0.00 | 89 | 986.0 |
| 20260509124002 | 13 | 314 | 11.3 | 20.9 | 0.00 | 0.20 | 0.00 | 89 | 986.1 |
| 20260509123502 | 13 | 337 | 8.0 | 20.9 | 0.00 | 0.20 | 0.00 | 89 | 986.2 |
| 20260509123002 | 13 | 322 | 9.7 | 25.7 | 0.00 | 0.20 | 0.00 | 89 | 986.3 |
| 20260509122502 | 13 | 274 | 8.0 | 19.3 | 0.00 | 0.20 | 0.00 | 89 | 986.2 |
| 20260509122003 | 13 | 338 | 8.0 | 16.1 | 0.00 | 0.20 | 0.00 | 89 | 986.1 |
| 20260509121502 | 13 | 268 | 6.4 | 14.5 | 0.00 | 0.20 | 0.00 | 89 | 985.9 |
| 20260509121002 | 13 | 169 | 6.4 | 16.1 | 0.00 | 0.20 | 0.00 | 89 | 985.8 |
| 20260509120502 | 13 | 334 | 4.8 | 9.7 | 0.00 | 0.20 | 0.00 | 90 | 985.6 |
| 20260509120002 | 13 | 310 | 4.8 | 12.9 | 0.00 | 0.20 | 0.00 | 90 | 985.5 |
| 20260509115503 | 12 | 198 | 4.8 | 12.9 | 0.00 | 0.20 | 0.00 | 91 | 985.4 |
| 20260509115002 | 12 | 207 | 4.8 | 9.7 | 0.00 | 0.20 | 0.00 | 91 | 985.2 |
| 20260509114503 | 12 | 316 | 4.8 | 14.5 | 0.00 | 0.20 | 0.00 | 91 | 985.1 |
| 20260509114002 | 12 | 272 | 4.8 | 14.5 | 0.00 | 0.20 | 0.00 | 91 | 985.0 |
| 20260509113502 | 12 | 302 | 4.8 | 12.9 | 0.00 | 0.20 | 0.00 | 91 | 985.0 |
| 20260509113003 | 12 | 283 | 3.2 | 8.0 | 0.00 | 0.20 | 0.00 | 91 | 985.0 |
| 20260509112503 | 12 | 297 | 4.8 | 14.5 | 0.00 | 0.20 | 0.00 | 91 | 984.9 |
| 20260509112002 | 12 | 326 | 3.2 | 16.1 | 0.00 | 0.20 | 0.00 | 91 | 985.0 |
| 20260509111502 | 12 | 293 | 4.8 | 12.9 | 0.00 | 0.20 | 0.00 | 91 | 984.9 |
| 20260509111002 | 12 | 311 | 3.2 | 8.0 | 0.00 | 0.20 | 0.00 | 91 | 984.8 |
| 20260509110502 | 12 | 194 | 1.6 | 6.4 | 0.00 | 0.20 | 0.00 | 91 | 984.7 |
| 20260509110002 | 12 | 296 | 3.2 | 9.7 | 0.00 | 0.20 | 0.00 | 91 | 984.7 |
| 20260509105503 | 12 | 277 | 3.2 | 8.0 | 0.00 | 0.20 | 0.00 | 91 | 984.8 |
| 20260509105002 | 12 | 255 | 3.2 | 8.0 | 0.00 | 0.20 | 0.00 | 91 | 984.8 |
| 20260509104502 | 12 | 254 | 3.2 | 8.0 | 0.00 | 0.20 | 0.00 | 91 | 984.9 |
| 20260509104002 | 12 | 301 | 3.2 | 6.4 | 0.00 | 0.20 | 0.00 | 91 | 984.7 |
| 20260509103502 | 12 | 231 | 3.2 | 8.0 | 0.00 | 0.20 | 0.00 | 91 | 984.7 |
| 20260509103002 | 11 | 242 | 3.2 | 6.4 | 0.00 | 0.20 | 0.00 | 91 | 984.8 |
| 20260509102503 | 11 | 296 | 3.2 | 6.4 | 0.00 | 0.20 | 0.00 | 91 | 984.7 |
| 20260509102002 | 11 | 265 | 3.2 | 6.4 | 0.00 | 0.20 | 0.00 | 91 | 984.7 |
| 20260509101502 | 12 | 290 | 3.2 | 6.4 | 0.00 | 0.20 | 0.00 | 91 | 984.7 |
| 20260509101002 | 12 | 260 | 3.2 | 6.4 | 0.00 | 0.20 | 0.00 | 90 | 984.8 |
| 20260509100502 | 12 | 297 | 1.6 | 6.4 | 0.00 | 0.20 | 0.00 | 90 | 984.7 |
| 20260509100002 | 12 | 247 | 1.6 | 6.4 | 0.00 | 0.20 | 0.00 | 90 | 984.8 |
| 20260509095502 | 12 | 203 | 1.6 | 4.8 | 0.00 | 0.20 | 0.00 | 89 | 984.9 |
| 20260509095003 | 12 | 251 | 1.6 | 4.8 | 0.00 | 0.20 | 0.00 | 89 | 985.0 |
| 20260509094502 | 12 | 281 | 1.6 | 3.2 | 0.00 | 0.20 | 0.00 | 88 | 985.0 |
| 20260509094002 | 12 | 236 | 1.6 | 4.8 | 0.00 | 0.20 | 0.00 | 88 | 985.0 |
| 20260509093502 | 12 | 284 | 3.2 | 4.8 | 0.00 | 0.20 | 0.00 | 87 | 985.1 |
| 20260509093002 | 12 | 296 | 1.6 | 4.8 | 0.00 | 0.20 | 0.00 | 87 | 985.2 |
| 20260509092503 | 12 | 283 | 4.8 | 11.3 | 0.00 | 0.20 | 0.00 | 87 | 985.2 |
| 20260509092002 | 12 | 328 | 3.2 | 8.0 | 0.00 | 0.20 | 0.00 | 87 | 985.1 |
| 20260509091502 | 12 | 288 | 1.6 | 6.4 | 0.00 | 0.20 | 0.00 | 86 | 985.1 |
| 20260509091002 | 13 | 232 | 1.6 | 4.8 | 0.00 | 0.20 | 0.00 | 86 | 985.2 |
| 20260509090503 | 13 | 179 | 1.6 | 6.4 | 0.00 | 0.20 | 0.00 | 85 | 985.2 |
| 20260509090002 | 13 | 265 | 1.6 | 4.8 | 0.00 | 0.20 | 0.00 | 85 | 985.2 |
| 20260509085502 | 13 | 205 | 1.6 | 8.0 | 0.00 | 0.20 | 0.00 | 84 | 985.3 |
| 20260509085002 | 13 | 187 | 4.8 | 11.3 | 0.00 | 0.20 | 0.00 | 84 | 985.3 |
| 20260509084502 | 13 | 229 | 3.2 | 9.7 | 0.00 | 0.20 | 0.00 | 84 | 985.1 |
| 20260509084003 | 13 | 197 | 4.8 | 9.7 | 0.00 | 0.20 | 0.00 | 84 | 985.1 |
| 20260509083502 | 13 | 232 | 3.2 | 8.0 | 0.00 | 0.20 | 0.00 | 84 | 985.0 |
| 20260509083002 | 13 | 344 | 4.8 | 11.3 | 0.00 | 0.20 | 0.00 | 84 | 985.1 |
| 20260509082502 | 13 | 327 | 4.8 | 11.3 | 0.00 | 0.20 | 0.00 | 84 | 985.0 |
| 20260509082002 | 13 | 358 | 4.8 | 16.1 | 0.00 | 0.20 | 0.00 | 84 | 985.1 |
| 20260509081502 | 13 | 267 | 3.2 | 6.4 | 0.00 | 0.20 | 0.00 | 84 | 985.2 |
| 20260509081002 | 13 | 296 | 3.2 | 6.4 | 0.00 | 0.20 | 0.00 | 84 | 985.2 |
| 20260509080503 | 13 | 210 | 3.2 | 14.5 | 0.00 | 0.20 | 0.00 | 84 | 985.1 |
| 20260509080002 | 13 | 155 | 3.2 | 9.7 | 0.00 | 0.20 | 0.00 | 84 | 985.0 |
| 20260509075502 | 13 | 249 | 1.6 | 4.8 | 0.00 | 0.20 | 0.00 | 84 | 985.0 |
| 20260509075002 | 13 | 248 | 3.2 | 9.7 | 0.00 | 0.20 | 0.00 | 85 | 985.1 |
| 20260509074502 | 13 | 237 | 1.6 | 4.8 | 0.00 | 0.20 | 0.00 | 85 | 985.1 |
| 20260509074003 | 13 | 179 | 1.6 | 8.0 | 0.00 | 0.20 | 0.00 | 85 | 985.0 |
| 20260509073502 | 12 | 205 | 3.2 | 8.0 | 0.00 | 0.20 | 0.00 | 84 | 984.9 |
| 20260509073002 | 12 | 196 | 3.2 | 8.0 | 0.00 | 0.20 | 0.00 | 84 | 984.8 |
| 20260509072502 | 12 | 279 | 3.2 | 9.7 | 0.00 | 0.20 | 0.00 | 86 | 984.8 |
| 20260509072002 | 12 | 253 | 1.6 | 6.4 | 0.00 | 0.20 | 0.00 | 87 | 985.0 |
| 20260509071503 | 12 | 202 | 3.2 | 9.7 | 0.00 | 0.20 | 0.00 | 88 | 985.2 |
| 20260509071002 | 11 | 165 | 4.8 | 9.7 | 0.00 | 0.20 | 0.00 | 88 | 985.2 |
| 20260509070502 | 11 | 172 | 4.8 | 8.0 | 0.00 | 0.20 | 0.00 | 88 | 985.3 |
| 20260509070003 | 11 | 167 | 4.8 | 11.3 | 0.00 | 0.20 | 0.00 | 89 | 985.3 |
| 20260509065502 | 11 | 181 | 4.8 | 8.0 | 0.00 | 0.20 | 0.00 | 89 | 985.2 |
| 20260509065002 | 11 | 169 | 4.8 | 9.7 | 0.00 | 0.20 | 0.00 | 88 | 985.3 |
| 20260509064502 | 12 | 203 | 3.2 | 11.3 | 0.00 | 0.20 | 0.00 | 87 | 985.3 |
| 20260509064002 | 12 | 202 | 3.2 | 8.0 | 0.00 | 0.20 | 0.00 | 87 | 985.5 |
| 20260509063503 | 12 | 155 | 6.4 | 11.3 | 0.00 | 0.20 | 0.00 | 86 | 985.5 |
| 20260509063002 | 12 | 197 | 3.2 | 9.7 | 0.00 | 0.20 | 0.00 | 85 | 985.4 |
| 20260509062502 | 12 | 159 | 4.8 | 9.7 | 0.00 | 0.20 | 0.00 | 85 | 985.6 |
| 20260509062003 | 12 | 160 | 4.8 | 8.0 | 0.00 | 0.20 | 0.00 | 84 | 985.6 |
| 20260509061502 | 13 | 161 | 3.2 | 9.7 | 0.00 | 0.20 | 0.00 | 83 | 985.7 |
| 20260509061002 | 13 | 189 | 4.8 | 8.0 | 0.00 | 0.20 | 0.00 | 82 | 985.7 |
| 20260509060502 | 13 | 171 | 4.8 | 8.0 | 0.00 | 0.20 | 0.00 | 80 | 985.7 |
| 20260509060002 | 14 | 167 | 6.4 | 16.1 | 0.00 | 0.20 | 0.00 | 79 | 985.5 |
| 20260509055503 | 14 | 189 | 4.8 | 8.0 | 0.00 | 0.20 | 0.00 | 78 | 985.5 |
| 20260509055002 | 14 | 207 | 3.2 | 9.7 | 0.00 | 0.20 | 0.00 | 76 | 985.6 |
| 20260509054502 | 15 | 334 | 4.8 | 14.5 | 0.00 | 0.20 | 0.00 | 76 | 985.6 |
| 20260509054002 | 15 | 316 | 8.0 | 17.7 | 0.00 | 0.20 | 0.00 | 76 | 985.6 |
| 20260509053503 | 15 | 298 | 4.8 | 14.5 | 0.00 | 0.20 | 0.00 | 75 | 985.7 |
| 20260509053003 | 15 | 235 | 6.4 | 11.3 | 0.00 | 0.20 | 0.00 | 75 | 985.6 |
| 20260509052502 | 15 | 330 | 4.8 | 16.1 | 0.00 | 0.20 | 0.00 | 74 | 985.6 |
| 20260509052002 | 15 | 197 | 6.4 | 14.5 | 0.00 | 0.20 | 0.00 | 74 | 985.6 |
| 20260509051502 | 15 | 202 | 6.4 | 14.5 | 0.00 | 0.20 | 0.00 | 73 | 985.7 |
| 20260509051002 | 15 | 220 | 6.4 | 17.7 | 0.00 | 0.20 | 0.00 | 73 | 985.7 |
| 20260509050502 | 15 | 111 | 6.4 | 14.5 | 0.00 | 0.20 | 0.00 | 72 | 985.5 |
| 20260509050002 | 15 | 145 | 4.8 | 14.5 | 0.00 | 0.20 | 0.00 | 72 | 985.4 |
| 20260509045502 | 15 | 278 | 4.8 | 19.3 | 0.00 | 0.20 | 0.00 | 72 | 985.4 |
| 20260509045003 | 15 | 22 | 6.4 | 17.7 | 0.00 | 0.20 | 0.00 | 71 | 985.4 |
| 20260509044502 | 15 | 288 | 4.8 | 11.3 | 0.00 | 0.20 | 0.00 | 71 | 985.4 |
| 20260509044002 | 15 | 257 | 4.8 | 11.3 | 0.00 | 0.20 | 0.00 | 70 | 985.4 |
| 20260509043503 | 16 | 312 | 6.4 | 12.9 | 0.00 | 0.20 | 0.00 | 69 | 985.4 |
| 20260509043003 | 16 | 302 | 4.8 | 12.9 | 0.00 | 0.20 | 0.00 | 68 | 985.5 |
| 20260509042502 | 16 | 336 | 6.4 | 14.5 | 0.00 | 0.20 | 0.00 | 68 | 985.5 |
| 20260509042002 | 16 | 223 | 4.8 | 16.1 | 0.00 | 0.20 | 0.00 | 68 | 985.5 |
| 20260509041502 | 16 | 344 | 4.8 | 14.5 | 0.00 | 0.20 | 0.00 | 68 | 985.5 |
| 20260509041002 | 16 | 292 | 3.2 | 8.0 | 0.00 | 0.20 | 0.00 | 67 | 985.6 |
| 20260509040502 | 16 | 1 | 6.4 | 19.3 | 0.00 | 0.20 | 0.00 | 66 | 985.7 |
| 20260509040003 | 16 | 222 | 4.8 | 16.1 | 0.00 | 0.20 | 0.00 | 67 | 985.7 |
| 20260509035502 | 16 | 272 | 8.0 | 25.7 | 0.00 | 0.20 | 0.00 | 66 | 985.7 |
| 20260509035002 | 16 | 323 | 6.4 | 14.5 | 0.00 | 0.20 | 0.00 | 66 | 985.6 |
| 20260509034502 | 16 | 358 | 6.4 | 20.9 | 0.00 | 0.20 | 0.00 | 66 | 985.6 |
| 20260509034002 | 16 | 299 | 6.4 | 19.3 | 0.00 | 0.20 | 0.00 | 66 | 985.7 |
| 20260509033502 | 16 | 336 | 6.4 | 17.7 | 0.00 | 0.20 | 0.00 | 65 | 985.7 |
| 20260509033003 | 16 | 19 | 6.4 | 12.9 | 0.00 | 0.20 | 0.00 | 65 | 985.7 |
| 20260509032502 | 16 | 230 | 4.8 | 14.5 | 0.00 | 0.20 | 0.00 | 65 | 985.7 |
| 20260509032002 | 16 | 304 | 6.4 | 16.1 | 0.00 | 0.20 | 0.00 | 65 | 985.8 |
| 20260509031502 | 15 | 16 | 6.4 | 27.4 | 0.00 | 0.20 | 0.00 | 66 | 985.8 |
| 20260509031002 | 15 | 310 | 4.8 | 16.1 | 0.00 | 0.20 | 0.00 | 66 | 985.8 |
| 20260509030502 | 15 | 294 | 6.4 | 20.9 | 0.00 | 0.20 | 0.00 | 68 | 985.7 |
| 20260509030003 | 15 | 195 | 4.8 | 12.9 | 0.00 | 0.20 | 0.00 | 67 | 985.7 |
| 20260509025502 | 15 | 175 | 6.4 | 12.9 | 0.00 | 0.20 | 0.00 | 69 | 985.6 |
| 20260509025002 | 15 | 195 | 6.4 | 12.9 | 0.00 | 0.20 | 0.00 | 69 | 985.6 |
| 20260509024502 | 15 | 164 | 4.8 | 12.9 | 0.00 | 0.20 | 0.00 | 69 | 985.6 |
| 20260509024002 | 15 | 198 | 6.4 | 14.5 | 0.00 | 0.20 | 0.00 | 69 | 985.6 |
| 20260509023502 | 15 | 181 | 6.4 | 11.3 | 0.00 | 0.20 | 0.00 | 69 | 985.5 |
| 20260509023003 | 15 | 144 | 4.8 | 17.7 | 0.00 | 0.20 | 0.00 | 68 | 985.5 |
| 20260509022502 | 15 | 182 | 4.8 | 11.3 | 0.00 | 0.20 | 0.00 | 67 | 985.5 |
| 20260509022002 | 15 | 112 | 4.8 | 9.7 | 0.00 | 0.20 | 0.00 | 66 | 985.6 |
| 20260509021502 | 15 | 249 | 4.8 | 14.5 | 0.00 | 0.20 | 0.00 | 67 | 985.6 |
| 20260509021002 | 15 | 334 | 4.8 | 9.7 | 0.00 | 0.20 | 0.00 | 67 | 985.6 |
| 20260509020502 | 15 | 180 | 6.4 | 14.5 | 0.00 | 0.20 | 0.00 | 69 | 985.6 |
| 20260509020002 | 15 | 220 | 4.8 | 12.9 | 0.00 | 0.20 | 0.00 | 70 | 985.5 |
| 20260509015503 | 14 | 189 | 4.8 | 14.5 | 0.00 | 0.20 | 0.00 | 72 | 985.4 |
| 20260509015002 | 14 | 187 | 4.8 | 11.3 | 0.00 | 0.20 | 0.00 | 73 | 985.4 |
| 20260509014502 | 14 | 176 | 6.4 | 12.9 | 0.00 | 0.20 | 0.00 | 72 | 985.4 |
| 20260509014002 | 14 | 179 | 6.4 | 9.7 | 0.00 | 0.20 | 0.00 | 73 | 985.3 |
| 20260509013502 | 14 | 179 | 6.4 | 11.3 | 0.00 | 0.20 | 0.00 | 72 | 985.3 |
| 20260509013002 | 15 | 177 | 4.8 | 8.0 | 0.00 | 0.20 | 0.00 | 72 | 985.3 |
| 20260509012502 | 15 | 177 | 4.8 | 9.7 | 0.00 | 0.20 | 0.00 | 71 | 985.3 |
| 20260509012002 | 15 | 176 | 6.4 | 11.3 | 0.00 | 0.20 | 0.00 | 70 | 985.3 |
| 20260509011503 | 15 | 181 | 8.0 | 11.3 | 0.00 | 0.20 | 0.00 | 69 | 985.3 |
| 20260509011002 | 15 | 162 | 8.0 | 11.3 | 0.00 | 0.20 | 0.00 | 68 | 985.3 |
| 20260509010502 | 16 | 167 | 6.4 | 9.7 | 0.00 | 0.20 | 0.00 | 67 | 985.3 |
| 20260509010002 | 16 | 168 | 6.4 | 9.7 | 0.00 | 0.20 | 0.00 | 66 | 985.3 |